Grouse Creek, UT (84313)

2:09 AM MDT on July 25, 2014 (GMT -0600)
Wendover (KENV) Elev 4239 ft | 40.72 °N, 114.03 °W | Change Station

Current weather conditions updated 14 minutes ago

Clear
Clear
73 °F
Feels Like 73 °F
N
0
Wind Variable Wind from North

Today is forecast to be Cooler than yesterday.

Today
High -- | Low -- °F
--% Chance of Precip.
Yesterday
High -- | Low -- °F
Precip. -- in
6:23 AM 8:59 PM
Waning Crescent, 2% visible
Pressure 30.02 in
Visibility 10.0 miles
Clouds Clear
Dew Point 37 °F
Humidity 27%
Rainfall 0.00 in
Snow Depth Not available.
UV 0 out of 12
Pollen 6.80 out of 12
Ozone Good
PM2.5 Good
Flu Activity Not available.
METAR KENV 250755Z 00000KT 10SM CLR 23/03 A3002 RMK AO1

More Conditions Fewer Conditions

Pressure 30.02 in
Visibility 10.0 miles
Clouds Clear
Dew Point 37 °F
Humidity 27%
Rainfall 0.00 in
Snow Depth Not available.
UV 0 out of 12
Pollen 6.80 out of 12
Ozone Good
PM2.5 Good
Flu Activity Not available.
METAR KENV 250755Z 00000KT 10SM CLR 23/03 A3002 RMK AO1

More Conditions Fewer Conditions

10-Day Weather Forecast

Almanac

Astronomy

Jul. 25, 2014 Rise Set
Actual Time 6:23 AM MDT 8:59 PM MDT
Civil Twilight 5:51 AM MDT 9:31 PM MDT
Nautical Twilight 5:11 AM MDT 10:10 PM MDT
Astronomical Twilight 4:26 AM MDT 10:55 PM MDT
Moon 5:26 AM MDT 7:58 PM MDT
Length of Visible Light 15h 39m
Length of Day
14h 36m
Tomorrow will be 1m 53s shorter.
Waning Crescent, 2% of the Moon is Illuminated
Today
Waning Crescent
Jul 26
New
Aug 3
First Quarter
Aug 10
Full
Aug 17
Last Quarter

Today's Extremes

State Highs State Lows

Community

WunderPhotos

Upload Photos

1,737,273 photos uploaded!

Nearby

Air Quality

  Air Quality AQ Index Pollutant
Yesterday Good
OZONE
Yesterday Good
PM2.5
Current Good
OZONE
Current Good
PM2.5

Snow Depth

Station Depth Elevation
Ben Lomond Trail 2 in 6000 ft
Little Bear 0 in 6550 ft
Dry Fork 0 in 7160 ft
Rocky Basin-Settlement 0 in 8900 ft
Farmington 0 in 8000 ft

Earthquake Activity

City Distance Mag. Time & Date
Wendover, Utah 69 miles 2.5 5:11 AM MDT
2014-07-20
Minimum magnitude displayed is 2.5.

Coastal Water Temperatures

Place Temperature
No Stations Reporting

Nearby Weather Stations

Station Location Temp. Dew Point Humidity Wind Precip. Elev Updated Type
RAWS ROSEBUD UT, Grouse Creek, UT 70 °F 35 °F 28% NW  at  7 mph 0.00 in / hr 4986 ft 12:42 AM MDT MADIS
MesoWest MNTLE1 , Montello, NV 55 °F - - North  at  - 0.00 in / hr 4833 ft 12:00 AM PDT MADIS
MesoWest GROUSE CREEK , Grouse Creek, UT 61 °F 38 °F 42% NNW  at  8 mph 0.00 in / hr 5845 ft 12:00 AM MDT MADIS

Show More Stations Show Fewer Stations